sensor_id;sensor_type;location;lat;lon;timestamp;P1;durP1;ratioP1;P2;durP2;ratioP2
4696;SDS011;2362;50.780;0.292;2023-02-28T00:02:19;19.63;;;2.60;;
4696;SDS011;2362;50.780;0.292;2023-02-28T00:04:45;22.90;;;2.55;;
4696;SDS011;2362;50.780;0.292;2023-02-28T00:07:17;10.93;;;2.22;;
4696;SDS011;2362;50.780;0.292;2023-02-28T00:09:43;14.18;;;2.72;;
4696;SDS011;2362;50.780;0.292;2023-02-28T00:12:09;14.35;;;2.60;;
4696;SDS011;2362;50.780;0.292;2023-02-28T00:14:40;19.70;;;2.42;;
4696;SDS011;2362;50.780;0.292;2023-02-28T00:17:05;14.98;;;2.92;;
4696;SDS011;2362;50.780;0.292;2023-02-28T00:19:31;11.35;;;2.40;;
4696;SDS011;2362;50.780;0.292;2023-02-28T00:21:56;14.02;;;2.03;;
4696;SDS011;2362;50.780;0.292;2023-02-28T00:24:22;9.25;;;2.22;;
4696;SDS011;2362;50.780;0.292;2023-02-28T00:26:48;20.63;;;2.05;;
4696;SDS011;2362;50.780;0.292;2023-02-28T00:29:13;16.42;;;2.22;;
4696;SDS011;2362;50.780;0.292;2023-02-28T00:31:39;22.02;;;2.92;;
4696;SDS011;2362;50.780;0.292;2023-02-28T00:34:04;14.93;;;2.38;;
4696;SDS011;2362;50.780;0.292;2023-02-28T00:36:30;11.57;;;1.92;;
4696;SDS011;2362;50.780;0.292;2023-02-28T00:38:56;7.50;;;2.25;;
4696;SDS011;2362;50.780;0.292;2023-02-28T00:41:21;16.05;;;2.65;;
4696;SDS011;2362;50.780;0.292;2023-02-28T00:44:12;12.48;;;1.88;;
4696;SDS011;2362;50.780;0.292;2023-02-28T00:46:38;21.85;;;2.17;;
4696;SDS011;2362;50.780;0.292;2023-02-28T00:49:03;19.42;;;3.17;;
4696;SDS011;2362;50.780;0.292;2023-02-28T00:51:29;16.98;;;2.10;;
4696;SDS011;2362;50.780;0.292;2023-02-28T00:53:55;18.77;;;2.80;;
4696;SDS011;2362;50.780;0.292;2023-02-28T00:56:20;18.83;;;2.55;;
4696;SDS011;2362;50.780;0.292;2023-02-28T00:58:46;14.95;;;3.25;;
4696;SDS011;2362;50.780;0.292;2023-02-28T01:01:12;14.50;;;2.10;;
4696;SDS011;2362;50.780;0.292;2023-02-28T01:03:38;18.35;;;2.50;;
4696;SDS011;2362;50.780;0.292;2023-02-28T01:06:04;19.67;;;2.85;;
4696;SDS011;2362;50.780;0.292;2023-02-28T01:08:30;15.98;;;2.63;;
4696;SDS011;2362;50.780;0.292;2023-02-28T01:10:56;12.82;;;1.88;;
4696;SDS011;2362;50.780;0.292;2023-02-28T01:13:22;17.85;;;2.90;;
4696;SDS011;2362;50.780;0.292;2023-02-28T01:15:52;12.93;;;3.08;;
4696;SDS011;2362;50.780;0.292;2023-02-28T01:18:46;13.40;;;2.53;;
4696;SDS011;2362;50.780;0.292;2023-02-28T01:21:13;8.18;;;2.00;;
4696;SDS011;2362;50.780;0.292;2023-02-28T01:23:41;10.82;;;2.75;;
4696;SDS011;2362;50.780;0.292;2023-02-28T01:26:08;17.58;;;2.08;;
4696;SDS011;2362;50.780;0.292;2023-02-28T01:28:39;16.55;;;2.97;;
4696;SDS011;2362;50.780;0.292;2023-02-28T01:31:05;17.38;;;2.30;;
4696;SDS011;2362;50.780;0.292;2023-02-28T01:33:31;15.82;;;1.63;;
4696;SDS011;2362;50.780;0.292;2023-02-28T01:36:01;12.38;;;2.35;;
4696;SDS011;2362;50.780;0.292;2023-02-28T01:38:29;14.77;;;1.48;;
4696;SDS011;2362;50.780;0.292;2023-02-28T01:40:55;12.10;;;2.53;;
4696;SDS011;2362;50.780;0.292;2023-02-28T01:43:25;20.85;;;2.28;;
4696;SDS011;2362;50.780;0.292;2023-02-28T01:45:56;11.25;;;2.15;;
4696;SDS011;2362;50.780;0.292;2023-02-28T01:48:24;13.77;;;2.65;;
4696;SDS011;2362;50.780;0.292;2023-02-28T01:50:53;13.95;;;2.20;;
4696;SDS011;2362;50.780;0.292;2023-02-28T01:53:24;8.80;;;2.40;;
4696;SDS011;2362;50.780;0.292;2023-02-28T01:55:56;22.50;;;3.70;;
4696;SDS011;2362;50.780;0.292;2023-02-28T01:58:22;6.57;;;1.67;;
4696;SDS011;2362;50.780;0.292;2023-02-28T02:00:48;14.35;;;2.20;;
4696;SDS011;2362;50.780;0.292;2023-02-28T02:03:14;22.35;;;2.83;;
4696;SDS011;2362;50.780;0.292;2023-02-28T02:05:44;16.58;;;2.47;;
4696;SDS011;2362;50.780;0.292;2023-02-28T02:08:23;17.45;;;2.55;;
4696;SDS011;2362;50.780;0.292;2023-02-28T02:10:54;17.77;;;2.13;;
4696;SDS011;2362;50.780;0.292;2023-02-28T02:18:59;22.50;;;2.92;;
4696;SDS011;2362;50.780;0.292;2023-02-28T02:35:35;5.70;;;1.83;;
4696;SDS011;2362;50.780;0.292;2023-02-28T02:38:09;15.57;;;1.90;;
4696;SDS011;2362;50.780;0.292;2023-02-28T02:43:53;29.85;;;3.75;;
4696;SDS011;2362;50.780;0.292;2023-02-28T02:46:43;18.50;;;4.07;;
4696;SDS011;2362;50.780;0.292;2023-02-28T02:49:12;18.85;;;2.40;;
4696;SDS011;2362;50.780;0.292;2023-02-28T02:51:43;14.98;;;2.75;;
4696;SDS011;2362;50.780;0.292;2023-02-28T02:54:11;17.05;;;2.45;;
4696;SDS011;2362;50.780;0.292;2023-02-28T02:56:48;20.92;;;2.63;;
4696;SDS011;2362;50.780;0.292;2023-02-28T02:59:16;18.55;;;2.85;;
4696;SDS011;2362;50.780;0.292;2023-02-28T03:01:50;7.93;;;2.33;;
4696;SDS011;2362;50.780;0.292;2023-02-28T03:04:21;19.30;;;3.17;;
4696;SDS011;2362;50.780;0.292;2023-02-28T03:06:50;25.88;;;2.78;;
4696;SDS011;2362;50.780;0.292;2023-02-28T03:09:23;13.98;;;2.75;;
4696;SDS011;2362;50.780;0.292;2023-02-28T03:11:50;16.40;;;3.22;;
4696;SDS011;2362;50.780;0.292;2023-02-28T03:19:44;20.95;;;3.13;;
4696;SDS011;2362;50.780;0.292;2023-02-28T03:25:33;20.55;;;2.58;;
4696;SDS011;2362;50.780;0.292;2023-02-28T03:31:06;18.02;;;2.83;;
4696;SDS011;2362;50.780;0.292;2023-02-28T03:33:48;28.30;;;3.33;;
4696;SDS011;2362;50.780;0.292;2023-02-28T03:36:26;18.02;;;3.22;;
4696;SDS011;2362;50.780;0.292;2023-02-28T03:38:58;20.30;;;3.22;;
4696;SDS011;2362;50.780;0.292;2023-02-28T03:44:40;12.48;;;3.22;;
4696;SDS011;2362;50.780;0.292;2023-02-28T03:49:45;30.23;;;4.38;;
4696;SDS011;2362;50.780;0.292;2023-02-28T03:52:15;10.48;;;3.88;;
4696;SDS011;2362;50.780;0.292;2023-02-28T03:54:45;21.50;;;4.15;;
4696;SDS011;2362;50.780;0.292;2023-02-28T03:57:37;16.90;;;4.18;;
4696;SDS011;2362;50.780;0.292;2023-02-28T04:02:38;19.90;;;4.38;;
4696;SDS011;2362;50.780;0.292;2023-02-28T04:05:05;10.18;;;3.95;;
4696;SDS011;2362;50.780;0.292;2023-02-28T04:07:31;18.63;;;5.22;;
4696;SDS011;2362;50.780;0.292;2023-02-28T04:09:57;21.13;;;4.97;;
4696;SDS011;2362;50.780;0.292;2023-02-28T04:12:24;41.55;;;4.68;;
4696;SDS011;2362;50.780;0.292;2023-02-28T04:14:50;22.08;;;4.22;;
4696;SDS011;2362;50.780;0.292;2023-02-28T04:17:16;31.90;;;5.70;;
4696;SDS011;2362;50.780;0.292;2023-02-28T04:19:41;31.45;;;4.47;;
4696;SDS011;2362;50.780;0.292;2023-02-28T04:22:08;30.55;;;5.85;;
4696;SDS011;2362;50.780;0.292;2023-02-28T04:24:59;43.40;;;5.90;;
4696;SDS011;2362;50.780;0.292;2023-02-28T04:27:25;19.23;;;3.50;;
4696;SDS011;2362;50.780;0.292;2023-02-28T04:29:50;16.95;;;4.05;;
4696;SDS011;2362;50.780;0.292;2023-02-28T04:32:16;23.77;;;5.05;;
4696;SDS011;2362;50.780;0.292;2023-02-28T04:34:41;29.67;;;5.07;;
4696;SDS011;2362;50.780;0.292;2023-02-28T04:37:07;26.20;;;4.65;;
4696;SDS011;2362;50.780;0.292;2023-02-28T04:39:34;20.23;;;3.95;;
4696;SDS011;2362;50.780;0.292;2023-02-28T04:42:01;27.33;;;4.60;;
4696;SDS011;2362;50.780;0.292;2023-02-28T04:44:28;31.98;;;5.88;;
4696;SDS011;2362;50.780;0.292;2023-02-28T04:46:53;17.65;;;4.18;;
4696;SDS011;2362;50.780;0.292;2023-02-28T04:49:19;18.98;;;4.25;;
4696;SDS011;2362;50.780;0.292;2023-02-28T04:51:45;16.38;;;3.95;;
4696;SDS011;2362;50.780;0.292;2023-02-28T04:54:10;38.58;;;3.63;;
4696;SDS011;2362;50.780;0.292;2023-02-28T04:56:37;26.10;;;4.05;;
4696;SDS011;2362;50.780;0.292;2023-02-28T04:59:03;24.10;;;4.05;;
4696;SDS011;2362;50.780;0.292;2023-02-28T05:01:30;29.77;;;4.05;;
4696;SDS011;2362;50.780;0.292;2023-02-28T05:03:58;46.33;;;5.00;;
4696;SDS011;2362;50.780;0.292;2023-02-28T05:06:26;25.08;;;4.05;;
4696;SDS011;2362;50.780;0.292;2023-02-28T05:08:53;29.90;;;5.38;;
4696;SDS011;2362;50.780;0.292;2023-02-28T05:11:20;21.48;;;4.80;;
4696;SDS011;2362;50.780;0.292;2023-02-28T05:13:48;21.50;;;4.00;;
4696;SDS011;2362;50.780;0.292;2023-02-28T05:16:40;19.95;;;5.13;;
4696;SDS011;2362;50.780;0.292;2023-02-28T05:19:06;25.75;;;5.10;;
4696;SDS011;2362;50.780;0.292;2023-02-28T05:21:33;26.58;;;4.18;;
4696;SDS011;2362;50.780;0.292;2023-02-28T05:24:03;13.95;;;4.95;;
4696;SDS011;2362;50.780;0.292;2023-02-28T05:26:35;29.10;;;5.43;;
4696;SDS011;2362;50.780;0.292;2023-02-28T05:29:03;15.02;;;5.40;;
4696;SDS011;2362;50.780;0.292;2023-02-28T05:31:30;27.40;;;4.80;;
4696;SDS011;2362;50.780;0.292;2023-02-28T05:33:56;17.55;;;4.55;;
4696;SDS011;2362;50.780;0.292;2023-02-28T05:36:22;26.85;;;5.13;;
4696;SDS011;2362;50.780;0.292;2023-02-28T05:38:49;27.20;;;5.28;;
4696;SDS011;2362;50.780;0.292;2023-02-28T05:41:16;21.15;;;4.93;;
4696;SDS011;2362;50.780;0.292;2023-02-28T05:43:44;16.50;;;4.25;;
4696;SDS011;2362;50.780;0.292;2023-02-28T05:46:11;22.13;;;5.55;;
4696;SDS011;2362;50.780;0.292;2023-02-28T05:48:38;24.20;;;5.85;;
4696;SDS011;2362;50.780;0.292;2023-02-28T05:51:07;20.85;;;5.38;;
4696;SDS011;2362;50.780;0.292;2023-02-28T05:53:33;24.40;;;5.82;;
4696;SDS011;2362;50.780;0.292;2023-02-28T05:55:59;15.43;;;5.70;;
4696;SDS011;2362;50.780;0.292;2023-02-28T05:58:25;29.50;;;7.57;;
4696;SDS011;2362;50.780;0.292;2023-02-28T06:00:55;28.85;;;5.85;;
4696;SDS011;2362;50.780;0.292;2023-02-28T06:03:21;24.95;;;6.22;;
4696;SDS011;2362;50.780;0.292;2023-02-28T06:05:47;23.67;;;5.43;;
4696;SDS011;2362;50.780;0.292;2023-02-28T06:08:12;34.55;;;6.88;;
4696;SDS011;2362;50.780;0.292;2023-02-28T06:10:38;33.55;;;5.75;;
4696;SDS011;2362;50.780;0.292;2023-02-28T06:13:04;26.45;;;6.57;;
4696;SDS011;2362;50.780;0.292;2023-02-28T06:15:30;28.65;;;5.95;;
4696;SDS011;2362;50.780;0.292;2023-02-28T06:17:57;26.35;;;7.22;;
4696;SDS011;2362;50.780;0.292;2023-02-28T06:20:23;26.33;;;5.15;;
4696;SDS011;2362;50.780;0.292;2023-02-28T06:22:54;23.33;;;5.88;;
4696;SDS011;2362;50.780;0.292;2023-02-28T06:25:23;23.63;;;6.22;;
4696;SDS011;2362;50.780;0.292;2023-02-28T06:27:50;24.27;;;7.25;;
4696;SDS011;2362;50.780;0.292;2023-02-28T06:30:16;25.50;;;6.07;;
4696;SDS011;2362;50.780;0.292;2023-02-28T06:32:42;30.58;;;8.43;;
4696;SDS011;2362;50.780;0.292;2023-02-28T06:35:08;20.38;;;6.00;;
4696;SDS011;2362;50.780;0.292;2023-02-28T06:37:33;25.48;;;5.97;;
4696;SDS011;2362;50.780;0.292;2023-02-28T06:39:59;26.00;;;7.63;;
4696;SDS011;2362;50.780;0.292;2023-02-28T06:42:25;22.15;;;7.43;;
4696;SDS011;2362;50.780;0.292;2023-02-28T06:44:56;33.15;;;6.88;;
4696;SDS011;2362;50.780;0.292;2023-02-28T06:47:23;24.10;;;6.78;;
4696;SDS011;2362;50.780;0.292;2023-02-28T06:49:48;40.33;;;6.93;;
4696;SDS011;2362;50.780;0.292;2023-02-28T06:52:14;28.55;;;7.25;;
4696;SDS011;2362;50.780;0.292;2023-02-28T06:54:40;15.25;;;5.72;;
4696;SDS011;2362;50.780;0.292;2023-02-28T06:57:06;24.70;;;7.55;;
4696;SDS011;2362;50.780;0.292;2023-02-28T06:59:32;21.30;;;7.10;;
4696;SDS011;2362;50.780;0.292;2023-02-28T07:01:58;27.58;;;7.68;;
4696;SDS011;2362;50.780;0.292;2023-02-28T07:04:23;26.27;;;7.53;;
4696;SDS011;2362;50.780;0.292;2023-02-28T07:06:49;28.77;;;7.28;;
4696;SDS011;2362;50.780;0.292;2023-02-28T07:09:15;42.50;;;9.48;;
4696;SDS011;2362;50.780;0.292;2023-02-28T07:11:40;21.80;;;7.20;;
4696;SDS011;2362;50.780;0.292;2023-02-28T07:14:08;32.60;;;8.57;;
4696;SDS011;2362;50.780;0.292;2023-02-28T07:16:35;27.63;;;7.45;;
4696;SDS011;2362;50.780;0.292;2023-02-28T07:19:01;28.58;;;8.43;;
4696;SDS011;2362;50.780;0.292;2023-02-28T07:21:27;24.80;;;8.18;;
4696;SDS011;2362;50.780;0.292;2023-02-28T07:23:52;32.97;;;7.53;;
4696;SDS011;2362;50.780;0.292;2023-02-28T07:26:19;17.42;;;7.65;;
4696;SDS011;2362;50.780;0.292;2023-02-28T07:28:45;31.92;;;7.85;;
4696;SDS011;2362;50.780;0.292;2023-02-28T07:31:12;31.38;;;7.85;;
4696;SDS011;2362;50.780;0.292;2023-02-28T07:33:42;27.80;;;8.05;;
4696;SDS011;2362;50.780;0.292;2023-02-28T07:36:12;38.25;;;8.18;;
4696;SDS011;2362;50.780;0.292;2023-02-28T07:38:41;26.63;;;8.77;;
4696;SDS011;2362;50.780;0.292;2023-02-28T07:41:08;30.05;;;7.20;;
4696;SDS011;2362;50.780;0.292;2023-02-28T07:43:35;24.90;;;7.80;;
4696;SDS011;2362;50.780;0.292;2023-02-28T07:46:03;36.65;;;8.68;;
4696;SDS011;2362;50.780;0.292;2023-02-28T07:48:30;28.27;;;8.07;;
4696;SDS011;2362;50.780;0.292;2023-02-28T07:50:56;28.35;;;7.30;;
4696;SDS011;2362;50.780;0.292;2023-02-28T07:53:23;29.10;;;8.43;;
4696;SDS011;2362;50.780;0.292;2023-02-28T07:55:48;27.60;;;7.88;;
4696;SDS011;2362;50.780;0.292;2023-02-28T07:58:14;29.80;;;7.40;;
4696;SDS011;2362;50.780;0.292;2023-02-28T08:00:40;35.20;;;8.63;;
4696;SDS011;2362;50.780;0.292;2023-02-28T08:03:05;23.13;;;8.40;;
4696;SDS011;2362;50.780;0.292;2023-02-28T08:05:31;27.15;;;8.45;;
4696;SDS011;2362;50.780;0.292;2023-02-28T08:07:57;22.55;;;7.45;;
4696;SDS011;2362;50.780;0.292;2023-02-28T08:10:22;28.92;;;7.10;;
4696;SDS011;2362;50.780;0.292;2023-02-28T08:12:49;18.55;;;6.90;;
4696;SDS011;2362;50.780;0.292;2023-02-28T08:15:16;23.83;;;6.00;;
4696;SDS011;2362;50.780;0.292;2023-02-28T08:17:42;32.25;;;7.93;;
4696;SDS011;2362;50.780;0.292;2023-02-28T08:20:08;23.45;;;7.70;;
4696;SDS011;2362;50.780;0.292;2023-02-28T08:22:35;33.92;;;7.25;;
4696;SDS011;2362;50.780;0.292;2023-02-28T08:25:01;26.25;;;7.18;;
4696;SDS011;2362;50.780;0.292;2023-02-28T08:27:26;21.55;;;6.45;;
4696;SDS011;2362;50.780;0.292;2023-02-28T08:29:52;30.75;;;7.30;;
4696;SDS011;2362;50.780;0.292;2023-02-28T08:32:18;25.60;;;6.68;;
4696;SDS011;2362;50.780;0.292;2023-02-28T08:34:45;25.77;;;6.57;;
4696;SDS011;2362;50.780;0.292;2023-02-28T08:37:11;17.73;;;5.43;;
4696;SDS011;2362;50.780;0.292;2023-02-28T08:39:37;27.55;;;6.15;;
4696;SDS011;2362;50.780;0.292;2023-02-28T08:42:02;20.90;;;5.75;;
4696;SDS011;2362;50.780;0.292;2023-02-28T08:44:28;19.52;;;5.90;;
4696;SDS011;2362;50.780;0.292;2023-02-28T08:46:54;21.42;;;6.55;;
4696;SDS011;2362;50.780;0.292;2023-02-28T08:49:20;12.93;;;5.10;;
4696;SDS011;2362;50.780;0.292;2023-02-28T08:51:45;28.30;;;5.90;;
4696;SDS011;2362;50.780;0.292;2023-02-28T08:54:11;22.67;;;5.78;;
4696;SDS011;2362;50.780;0.292;2023-02-28T08:56:38;17.75;;;5.88;;
4696;SDS011;2362;50.780;0.292;2023-02-28T08:59:05;23.63;;;5.30;;
4696;SDS011;2362;50.780;0.292;2023-02-28T09:01:31;23.50;;;5.60;;
4696;SDS011;2362;50.780;0.292;2023-02-28T09:03:57;20.27;;;4.90;;
4696;SDS011;2362;50.780;0.292;2023-02-28T09:06:24;15.50;;;4.40;;
4696;SDS011;2362;50.780;0.292;2023-02-28T09:08:50;25.02;;;4.72;;
4696;SDS011;2362;50.780;0.292;2023-02-28T09:11:16;11.25;;;3.92;;
4696;SDS011;2362;50.780;0.292;2023-02-28T09:13:44;12.52;;;4.35;;
4696;SDS011;2362;50.780;0.292;2023-02-28T09:16:12;14.55;;;4.32;;
4696;SDS011;2362;50.780;0.292;2023-02-28T09:18:39;14.38;;;4.13;;
4696;SDS011;2362;50.780;0.292;2023-02-28T09:21:12;9.98;;;3.50;;
4696;SDS011;2362;50.780;0.292;2023-02-28T09:23:43;7.68;;;2.97;;
4696;SDS011;2362;50.780;0.292;2023-02-28T09:26:18;15.77;;;3.70;;
4696;SDS011;2362;50.780;0.292;2023-02-28T09:28:48;14.02;;;3.50;;
4696;SDS011;2362;50.780;0.292;2023-02-28T09:31:15;13.80;;;2.92;;
4696;SDS011;2362;50.780;0.292;2023-02-28T09:33:45;16.17;;;3.17;;
4696;SDS011;2362;50.780;0.292;2023-02-28T09:36:12;10.52;;;3.47;;
4696;SDS011;2362;50.780;0.292;2023-02-28T09:38:37;13.18;;;3.58;;
4696;SDS011;2362;50.780;0.292;2023-02-28T09:41:13;10.38;;;2.58;;
4696;SDS011;2362;50.780;0.292;2023-02-28T09:43:46;9.00;;;2.67;;
4696;SDS011;2362;50.780;0.292;2023-02-28T09:46:34;10.00;;;2.22;;
4696;SDS011;2362;50.780;0.292;2023-02-28T09:49:05;10.25;;;3.70;;
4696;SDS011;2362;50.780;0.292;2023-02-28T09:52:02;13.13;;;2.60;;
4696;SDS011;2362;50.780;0.292;2023-02-28T09:54:35;11.20;;;2.67;;
4696;SDS011;2362;50.780;0.292;2023-02-28T09:57:04;10.73;;;2.47;;
4696;SDS011;2362;50.780;0.292;2023-02-28T10:05:11;6.43;;;1.95;;
4696;SDS011;2362;50.780;0.292;2023-02-28T10:13:00;7.20;;;1.20;;
4696;SDS011;2362;50.780;0.292;2023-02-28T10:15:30;5.35;;;1.20;;
4696;SDS011;2362;50.780;0.292;2023-02-28T10:17:59;4.53;;;1.30;;
4696;SDS011;2362;50.780;0.292;2023-02-28T10:20:29;27.30;;;2.75;;
4696;SDS011;2362;50.780;0.292;2023-02-28T10:25:57;7.03;;;1.38;;
4696;SDS011;2362;50.780;0.292;2023-02-28T10:28:25;2.92;;;1.10;;
4696;SDS011;2362;50.780;0.292;2023-02-28T10:30:54;5.57;;;1.13;;
4696;SDS011;2362;50.780;0.292;2023-02-28T10:36:13;5.93;;;1.02;;
4696;SDS011;2362;50.780;0.292;2023-02-28T10:38:43;6.30;;;1.27;;
4696;SDS011;2362;50.780;0.292;2023-02-28T10:41:31;6.65;;;1.10;;
4696;SDS011;2362;50.780;0.292;2023-02-28T10:46:39;3.58;;;0.98;;
4696;SDS011;2362;50.780;0.292;2023-02-28T10:49:07;2.15;;;0.70;;
4696;SDS011;2362;50.780;0.292;2023-02-28T10:51:40;3.85;;;0.68;;
4696;SDS011;2362;50.780;0.292;2023-02-28T10:54:14;5.45;;;0.77;;
4696;SDS011;2362;50.780;0.292;2023-02-28T10:56:44;7.03;;;0.75;;
4696;SDS011;2362;50.780;0.292;2023-02-28T11:05:21;2.83;;;0.73;;
4696;SDS011;2362;50.780;0.292;2023-02-28T11:08:02;4.18;;;1.25;;
4696;SDS011;2362;50.780;0.292;2023-02-28T11:10:32;11.63;;;0.85;;
4696;SDS011;2362;50.780;0.292;2023-02-28T11:13:01;6.28;;;0.82;;
4696;SDS011;2362;50.780;0.292;2023-02-28T11:15:29;7.75;;;0.73;;
4696;SDS011;2362;50.780;0.292;2023-02-28T11:18:02;9.38;;;1.00;;
4696;SDS011;2362;50.780;0.292;2023-02-28T11:20:37;8.57;;;0.70;;
4696;SDS011;2362;50.780;0.292;2023-02-28T11:23:04;9.90;;;1.73;;
4696;SDS011;2362;50.780;0.292;2023-02-28T11:25:37;5.68;;;0.80;;
4696;SDS011;2362;50.780;0.292;2023-02-28T11:28:04;2.88;;;0.50;;
4696;SDS011;2362;50.780;0.292;2023-02-28T11:30:49;14.88;;;1.40;;
4696;SDS011;2362;50.780;0.292;2023-02-28T11:36:17;5.50;;;0.70;;
4696;SDS011;2362;50.780;0.292;2023-02-28T11:38:55;3.22;;;0.95;;
4696;SDS011;2362;50.780;0.292;2023-02-28T11:52:50;4.72;;;0.50;;
4696;SDS011;2362;50.780;0.292;2023-02-28T11:55:31;6.68;;;0.90;;
4696;SDS011;2362;50.780;0.292;2023-02-28T11:58:04;6.32;;;0.60;;
4696;SDS011;2362;50.780;0.292;2023-02-28T12:06:38;2.20;;;0.65;;
4696;SDS011;2362;50.780;0.292;2023-02-28T12:31:55;8.48;;;1.80;;
4696;SDS011;2362;50.780;0.292;2023-02-28T12:34:32;5.40;;;1.10;;
4696;SDS011;2362;50.780;0.292;2023-02-28T12:37:02;6.68;;;1.15;;
4696;SDS011;2362;50.780;0.292;2023-02-28T12:39:34;2.17;;;1.17;;
4696;SDS011;2362;50.780;0.292;2023-02-28T12:42:10;9.27;;;1.10;;
4696;SDS011;2362;50.780;0.292;2023-02-28T12:45:31;7.18;;;1.25;;
4696;SDS011;2362;50.780;0.292;2023-02-28T12:47:52;6.50;;;1.15;;
4696;SDS011;2362;50.780;0.292;2023-02-28T12:50:25;7.75;;;1.83;;
4696;SDS011;2362;50.780;0.292;2023-02-28T12:58:41;2.88;;;0.75;;
4696;SDS011;2362;50.780;0.292;2023-02-28T13:09:37;11.27;;;2.50;;
4696;SDS011;2362;50.780;0.292;2023-02-28T13:12:14;5.18;;;1.58;;
4696;SDS011;2362;50.780;0.292;2023-02-28T13:14:41;6.30;;;1.13;;
4696;SDS011;2362;50.780;0.292;2023-02-28T13:19:46;5.15;;;1.35;;
4696;SDS011;2362;50.780;0.292;2023-02-28T13:24:54;3.63;;;1.40;;
4696;SDS011;2362;50.780;0.292;2023-02-28T13:29:50;5.88;;;1.33;;
4696;SDS011;2362;50.780;0.292;2023-02-28T13:32:31;7.55;;;2.00;;
4696;SDS011;2362;50.780;0.292;2023-02-28T13:42:33;4.75;;;1.80;;
4696;SDS011;2362;50.780;0.292;2023-02-28T13:47:40;6.90;;;1.98;;
4696;SDS011;2362;50.780;0.292;2023-02-28T13:53:13;4.05;;;1.77;;
4696;SDS011;2362;50.780;0.292;2023-02-28T14:06:39;2.92;;;2.05;;
4696;SDS011;2362;50.780;0.292;2023-02-28T14:09:24;2.17;;;1.85;;
4696;SDS011;2362;50.780;0.292;2023-02-28T14:11:53;4.65;;;1.83;;
4696;SDS011;2362;50.780;0.292;2023-02-28T14:17:01;9.50;;;1.85;;
4696;SDS011;2362;50.780;0.292;2023-02-28T14:19:31;5.63;;;2.13;;
4696;SDS011;2362;50.780;0.292;2023-02-28T14:27:47;5.93;;;1.50;;
4696;SDS011;2362;50.780;0.292;2023-02-28T14:30:26;5.85;;;1.67;;
4696;SDS011;2362;50.780;0.292;2023-02-28T14:33:22;3.85;;;1.65;;
4696;SDS011;2362;50.780;0.292;2023-02-28T14:36:00;15.77;;;2.10;;
4696;SDS011;2362;50.780;0.292;2023-02-28T14:38:58;5.53;;;1.75;;
4696;SDS011;2362;50.780;0.292;2023-02-28T14:41:42;7.93;;;2.08;;
4696;SDS011;2362;50.780;0.292;2023-02-28T14:44:27;4.38;;;1.88;;
4696;SDS011;2362;50.780;0.292;2023-02-28T14:46:54;8.55;;;2.03;;
4696;SDS011;2362;50.780;0.292;2023-02-28T14:51:50;2.63;;;1.65;;
4696;SDS011;2362;50.780;0.292;2023-02-28T14:54:28;3.97;;;1.90;;
4696;SDS011;2362;50.780;0.292;2023-02-28T14:56:54;2.95;;;1.50;;
4696;SDS011;2362;50.780;0.292;2023-02-28T14:59:24;5.38;;;2.05;;
4696;SDS011;2362;50.780;0.292;2023-02-28T15:01:51;4.22;;;2.05;;
4696;SDS011;2362;50.780;0.292;2023-02-28T15:04:22;5.88;;;2.00;;
4696;SDS011;2362;50.780;0.292;2023-02-28T15:07:14;11.82;;;1.92;;
4696;SDS011;2362;50.780;0.292;2023-02-28T15:09:40;4.15;;;1.88;;
4696;SDS011;2362;50.780;0.292;2023-02-28T15:12:07;4.93;;;2.03;;
4696;SDS011;2362;50.780;0.292;2023-02-28T15:14:36;5.72;;;2.53;;
4696;SDS011;2362;50.780;0.292;2023-02-28T15:17:05;5.32;;;1.58;;
4696;SDS011;2362;50.780;0.292;2023-02-28T15:19:34;5.65;;;1.98;;
4696;SDS011;2362;50.780;0.292;2023-02-28T15:22:07;14.63;;;4.28;;
4696;SDS011;2362;50.780;0.292;2023-02-28T15:24:39;9.23;;;2.05;;
4696;SDS011;2362;50.780;0.292;2023-02-28T15:27:16;9.63;;;2.55;;
4696;SDS011;2362;50.780;0.292;2023-02-28T15:29:51;7.80;;;2.45;;
4696;SDS011;2362;50.780;0.292;2023-02-28T15:32:23;5.30;;;2.58;;
4696;SDS011;2362;50.780;0.292;2023-02-28T15:34:50;6.35;;;2.60;;
4696;SDS011;2362;50.780;0.292;2023-02-28T15:40:25;7.10;;;2.53;;
4696;SDS011;2362;50.780;0.292;2023-02-28T15:42:59;7.78;;;2.47;;
4696;SDS011;2362;50.780;0.292;2023-02-28T15:45:32;5.05;;;2.00;;
4696;SDS011;2362;50.780;0.292;2023-02-28T15:48:05;6.95;;;2.38;;
4696;SDS011;2362;50.780;0.292;2023-02-28T15:50:50;10.77;;;3.13;;
4696;SDS011;2362;50.780;0.292;2023-02-28T15:53:19;10.23;;;2.97;;
4696;SDS011;2362;50.780;0.292;2023-02-28T15:55:59;8.23;;;3.25;;
4696;SDS011;2362;50.780;0.292;2023-02-28T15:58:27;6.50;;;2.63;;
4696;SDS011;2362;50.780;0.292;2023-02-28T16:01:08;7.55;;;2.63;;
4696;SDS011;2362;50.780;0.292;2023-02-28T16:03:49;6.80;;;3.05;;
4696;SDS011;2362;50.780;0.292;2023-02-28T16:09:05;5.72;;;1.63;;
4696;SDS011;2362;50.780;0.292;2023-02-28T16:11:34;8.50;;;1.67;;
4696;SDS011;2362;50.780;0.292;2023-02-28T16:14:03;7.03;;;1.40;;
4696;SDS011;2362;50.780;0.292;2023-02-28T16:16:29;6.25;;;1.55;;
4696;SDS011;2362;50.780;0.292;2023-02-28T16:18:56;7.22;;;1.23;;
4696;SDS011;2362;50.780;0.292;2023-02-28T16:21:22;4.63;;;1.13;;
4696;SDS011;2362;50.780;0.292;2023-02-28T16:23:49;6.57;;;1.35;;
4696;SDS011;2362;50.780;0.292;2023-02-28T16:26:18;8.48;;;1.30;;
4696;SDS011;2362;50.780;0.292;2023-02-28T16:28:46;17.33;;;2.70;;
4696;SDS011;2362;50.780;0.292;2023-02-28T16:31:14;7.00;;;1.60;;
4696;SDS011;2362;50.780;0.292;2023-02-28T16:33:42;10.65;;;1.70;;
4696;SDS011;2362;50.780;0.292;2023-02-28T16:36:13;6.15;;;1.60;;
4696;SDS011;2362;50.780;0.292;2023-02-28T16:38:44;12.55;;;2.90;;
4696;SDS011;2362;50.780;0.292;2023-02-28T16:41:14;11.00;;;2.58;;
4696;SDS011;2362;50.780;0.292;2023-02-28T16:43:44;7.10;;;1.92;;
4696;SDS011;2362;50.780;0.292;2023-02-28T16:46:12;2.85;;;1.08;;
4696;SDS011;2362;50.780;0.292;2023-02-28T16:48:38;5.03;;;1.60;;
4696;SDS011;2362;50.780;0.292;2023-02-28T16:51:06;5.70;;;2.05;;
4696;SDS011;2362;50.780;0.292;2023-02-28T16:53:36;2.58;;;1.60;;
4696;SDS011;2362;50.780;0.292;2023-02-28T16:56:02;15.18;;;6.55;;
4696;SDS011;2362;50.780;0.292;2023-02-28T16:58:29;28.15;;;13.82;;
4696;SDS011;2362;50.780;0.292;2023-02-28T17:00:55;23.17;;;13.65;;
4696;SDS011;2362;50.780;0.292;2023-02-28T17:03:25;22.10;;;13.68;;
4696;SDS011;2362;50.780;0.292;2023-02-28T17:05:52;20.98;;;11.82;;
4696;SDS011;2362;50.780;0.292;2023-02-28T17:08:18;16.88;;;11.50;;
4696;SDS011;2362;50.780;0.292;2023-02-28T17:10:44;55.53;;;13.68;;
4696;SDS011;2362;50.780;0.292;2023-02-28T17:13:10;22.27;;;11.57;;
4696;SDS011;2362;50.780;0.292;2023-02-28T17:15:36;23.48;;;10.65;;
4696;SDS011;2362;50.780;0.292;2023-02-28T17:18:02;23.05;;;10.60;;
4696;SDS011;2362;50.780;0.292;2023-02-28T17:20:29;18.77;;;10.60;;
4696;SDS011;2362;50.780;0.292;2023-02-28T17:22:55;22.08;;;10.30;;
4696;SDS011;2362;50.780;0.292;2023-02-28T17:25:21;21.30;;;12.65;;
4696;SDS011;2362;50.780;0.292;2023-02-28T17:27:48;32.03;;;12.35;;
4696;SDS011;2362;50.780;0.292;2023-02-28T17:30:20;19.55;;;11.15;;
4696;SDS011;2362;50.780;0.292;2023-02-28T17:32:52;21.33;;;11.80;;
4696;SDS011;2362;50.780;0.292;2023-02-28T17:35:18;19.40;;;10.73;;
4696;SDS011;2362;50.780;0.292;2023-02-28T17:37:44;22.20;;;11.95;;
4696;SDS011;2362;50.780;0.292;2023-02-28T17:40:14;21.13;;;11.05;;
4696;SDS011;2362;50.780;0.292;2023-02-28T17:42:42;13.48;;;8.35;;
4696;SDS011;2362;50.780;0.292;2023-02-28T17:45:08;20.08;;;9.68;;
4696;SDS011;2362;50.780;0.292;2023-02-28T17:47:34;14.98;;;8.50;;
4696;SDS011;2362;50.780;0.292;2023-02-28T17:50:00;15.88;;;8.85;;
4696;SDS011;2362;50.780;0.292;2023-02-28T17:52:25;18.40;;;10.85;;
4696;SDS011;2362;50.780;0.292;2023-02-28T17:54:51;16.77;;;10.15;;
4696;SDS011;2362;50.780;0.292;2023-02-28T17:57:17;17.05;;;9.55;;
4696;SDS011;2362;50.780;0.292;2023-02-28T17:59:45;19.55;;;10.95;;
4696;SDS011;2362;50.780;0.292;2023-02-28T18:02:11;13.80;;;8.88;;
4696;SDS011;2362;50.780;0.292;2023-02-28T18:04:38;17.92;;;11.10;;
4696;SDS011;2362;50.780;0.292;2023-02-28T18:07:05;18.13;;;11.88;;
4696;SDS011;2362;50.780;0.292;2023-02-28T18:09:34;21.52;;;10.80;;
4696;SDS011;2362;50.780;0.292;2023-02-28T18:11:59;17.15;;;9.85;;
4696;SDS011;2362;50.780;0.292;2023-02-28T18:14:25;14.18;;;8.57;;